createdAt,value
2018-05-02T00:00:34.149Z,5.50
2018-05-02T00:03:02.106Z,5.40
2018-05-02T00:05:29.010Z,5.40
2018-05-02T00:07:55.137Z,5.40
2018-05-02T00:10:22.116Z,5.30
2018-05-02T00:12:48.986Z,5.30
2018-05-02T00:15:15.141Z,5.20
2018-05-02T00:17:42.274Z,5.20
2018-05-02T00:20:08.373Z,5.20
2018-05-02T00:22:34.457Z,5.20
2018-05-02T00:25:00.862Z,5.20
2018-05-02T00:27:26.956Z,5.20
2018-05-02T00:29:53.070Z,5.20
2018-05-02T00:32:20.060Z,5.00
2018-05-02T00:34:46.167Z,5.00
2018-05-02T00:37:12.267Z,5.00
2018-05-02T00:39:39.125Z,4.90
2018-05-02T00:42:06.057Z,4.80
2018-05-02T00:44:32.908Z,4.90
2018-05-02T00:46:59.903Z,4.80
2018-05-02T00:49:26.056Z,4.80
2018-05-02T00:51:52.178Z,4.80
2018-05-02T00:54:18.273Z,4.80
2018-05-02T00:56:44.397Z,4.70
2018-05-02T00:59:10.537Z,4.70
2018-05-02T01:01:36.704Z,4.70
2018-05-02T01:04:03.596Z,4.70
2018-05-02T01:06:29.774Z,4.70
2018-05-02T01:08:55.884Z,4.70
2018-05-02T01:11:22.071Z,4.70
2018-05-02T01:13:48.118Z,4.70
2018-05-02T01:16:14.264Z,4.60
2018-05-02T01:18:40.407Z,4.60
2018-05-02T01:21:07.259Z,4.50
2018-05-02T01:23:34.110Z,4.50
2018-05-02T01:26:00.947Z,4.40
2018-05-02T01:28:27.838Z,4.40
2018-05-02T01:30:53.973Z,4.40
2018-05-02T01:33:20.115Z,4.40
2018-05-02T01:35:46.233Z,4.30
2018-05-02T01:38:12.393Z,4.30
2018-05-02T01:40:38.522Z,4.30
2018-05-02T01:43:04.679Z,4.20
2018-05-02T01:45:30.789Z,4.20
2018-05-02T01:47:56.945Z,4.00
2018-05-02T01:50:23.053Z,4.00
2018-05-02T01:52:49.265Z,4.00
2018-05-02T01:55:15.380Z,4.00
2018-05-02T01:57:41.863Z,4.00
2018-05-02T02:00:07.990Z,4.00
2018-05-02T02:02:34.118Z,4.00
2018-05-02T02:05:00.245Z,4.00
2018-05-02T02:07:26.356Z,4.00
2018-05-02T02:09:52.455Z,3.90
2018-05-02T02:12:19.325Z,3.90
2018-05-02T02:14:45.457Z,3.90
2018-05-02T02:17:11.607Z,3.90
2018-05-02T02:19:37.739Z,3.90
2018-05-02T02:22:03.896Z,3.90
2018-05-02T02:24:30.065Z,3.80
2018-05-02T02:26:56.177Z,3.80
2018-05-02T02:29:22.317Z,3.80
2018-05-02T02:31:48.429Z,3.80
2018-05-02T02:34:14.571Z,3.70
2018-05-02T02:36:40.672Z,3.70
2018-05-02T02:39:07.517Z,3.70
2018-05-02T02:41:34.385Z,3.60
2018-05-02T02:44:00.525Z,3.60
2018-05-02T02:46:26.645Z,3.60
2018-05-02T02:48:52.775Z,3.60
2018-05-02T02:51:18.931Z,3.60
2018-05-02T02:53:45.068Z,3.60
2018-05-02T02:56:11.196Z,3.60
2018-05-02T02:58:37.321Z,3.60
2018-05-02T03:01:03.449Z,3.60
2018-05-02T03:03:29.593Z,3.50
2018-05-02T03:05:55.725Z,3.50
2018-05-02T03:08:22.689Z,3.50
2018-05-02T03:10:48.818Z,3.50
2018-05-02T03:13:14.930Z,3.50
2018-05-02T03:15:41.077Z,3.50
2018-05-02T03:18:07.969Z,3.50
2018-05-02T03:20:34.109Z,3.50
2018-05-02T03:23:01.009Z,3.50
2018-05-02T03:25:27.127Z,3.50
2018-05-02T03:27:53.245Z,3.50
2018-05-02T03:30:19.341Z,3.50
2018-05-02T03:32:45.446Z,3.50
2018-05-02T03:35:11.558Z,3.50
2018-05-02T03:37:37.705Z,3.50
2018-05-02T03:40:03.825Z,3.50
2018-05-02T03:42:29.985Z,3.50
2018-05-02T03:44:56.118Z,3.50
2018-05-02T03:47:22.286Z,3.50
2018-05-02T03:49:48.417Z,3.40
2018-05-02T03:52:14.550Z,3.40
2018-05-02T03:54:40.690Z,3.40
2018-05-02T03:57:06.812Z,3.40
2018-05-02T03:59:45.374Z,3.40
2018-05-02T04:02:23.564Z,3.40
2018-05-02T04:05:01.957Z,3.40
2018-05-02T04:07:28.043Z,3.30
2018-05-02T04:09:54.155Z,3.40
2018-05-02T04:12:20.293Z,3.40
2018-05-02T04:14:46.466Z,3.40
2018-05-02T04:17:12.566Z,3.40
2018-05-02T04:19:38.704Z,3.40
2018-05-02T04:22:04.825Z,3.40
2018-05-02T04:24:30.965Z,3.50
2018-05-02T04:26:57.097Z,3.50
2018-05-02T04:29:23.241Z,3.50
2018-05-02T04:31:50.088Z,3.50
2018-05-02T04:34:16.252Z,3.40
2018-05-02T04:36:42.354Z,3.50
2018-05-02T04:39:08.575Z,3.60
2018-05-02T04:41:35.416Z,3.60
2018-05-02T04:44:02.277Z,3.70
2018-05-02T04:46:28.450Z,3.70
2018-05-02T04:48:54.580Z,3.70
2018-05-02T04:51:20.705Z,3.70
2018-05-02T04:53:46.793Z,3.80
2018-05-02T04:56:12.915Z,3.80
2018-05-02T04:58:39.013Z,3.90
2018-05-02T05:01:05.887Z,4.00
2018-05-02T05:03:32.030Z,4.00
2018-05-02T05:05:58.181Z,4.10
2018-05-02T05:08:24.341Z,4.20
2018-05-02T05:10:50.510Z,4.40
2018-05-02T05:13:16.619Z,4.60
2018-05-02T05:15:42.745Z,4.80
2018-05-02T05:18:08.868Z,4.90
2018-05-02T05:20:35.065Z,5.10
2018-05-02T05:23:01.238Z,5.20
2018-05-02T05:25:27.363Z,5.30
2018-05-02T05:27:53.472Z,5.50
2018-05-02T05:30:19.601Z,5.50
2018-05-02T05:32:45.726Z,5.70
2018-05-02T05:35:11.898Z,5.80
2018-05-02T05:37:38.015Z,5.90
2018-05-02T05:40:04.130Z,5.90
2018-05-02T05:42:30.291Z,5.90
2018-05-02T05:44:56.552Z,5.80
2018-05-02T05:47:22.713Z,5.80
2018-05-02T05:49:48.855Z,5.80
2018-05-02T05:52:14.995Z,5.70
2018-05-02T05:54:41.123Z,5.70
2018-05-02T05:57:07.244Z,5.70
2018-05-02T05:59:33.448Z,5.70
2018-05-02T06:01:59.596Z,5.80
2018-05-02T06:04:25.812Z,5.90
2018-05-02T06:06:52.190Z,6.00
2018-05-02T06:09:18.385Z,6.00
2018-05-02T06:11:44.754Z,6.10
2018-05-02T06:14:11.656Z,6.30
2018-05-02T06:16:38.280Z,6.30
2018-05-02T06:19:04.626Z,6.40
2018-05-02T06:21:30.935Z,6.50
2018-05-02T06:23:57.497Z,6.60
2018-05-02T06:26:24.345Z,6.70
2018-05-02T06:28:51.279Z,6.80
2018-05-02T06:31:17.410Z,6.80
2018-05-02T06:33:43.655Z,6.90
2018-05-02T06:36:09.923Z,7.00
2018-05-02T06:38:36.154Z,7.10
2018-05-02T06:41:02.521Z,7.10
2018-05-02T06:43:28.723Z,7.20
2018-05-02T06:45:55.080Z,7.30
2018-05-02T06:48:21.312Z,7.40
2018-05-02T06:50:47.473Z,7.40
2018-05-02T06:53:13.608Z,7.50
2018-05-02T06:55:39.840Z,7.60
2018-05-02T06:58:06.073Z,7.60
2018-05-02T07:00:32.356Z,7.70
2018-05-02T07:02:58.511Z,7.80
2018-05-02T07:05:24.823Z,7.90
2018-05-02T07:07:51.093Z,8.00
2018-05-02T07:10:17.273Z,8.10
2018-05-02T07:12:43.341Z,8.20
2018-05-02T07:15:09.635Z,8.30
2018-05-02T07:17:35.839Z,8.40
2018-05-02T07:20:06.168Z,8.50
2018-05-02T07:22:32.697Z,8.60
2018-05-02T07:24:58.793Z,8.70
2018-05-02T07:27:24.913Z,8.70
2018-05-02T07:29:51.071Z,8.80
2018-05-02T07:32:17.292Z,9.00
2018-05-02T07:34:43.519Z,9.10
2018-05-02T07:37:09.681Z,9.20
2018-05-02T07:39:35.853Z,9.30
2018-05-02T07:42:02.060Z,9.40
2018-05-02T07:44:28.161Z,9.50
2018-05-02T07:46:54.267Z,9.60
2018-05-02T07:49:20.389Z,9.70
2018-05-02T07:51:46.572Z,9.80
2018-05-02T07:54:12.719Z,9.90
2018-05-02T07:56:38.834Z,9.90
2018-05-02T07:59:04.944Z,9.90
2018-05-02T08:01:31.171Z,9.90
2018-05-02T08:03:57.307Z,10.10
2018-05-02T08:06:24.192Z,10.10
2018-05-02T08:08:50.329Z,10.00
2018-05-02T08:11:16.441Z,10.10
2018-05-02T08:13:42.569Z,10.20
2018-05-02T08:16:08.698Z,10.30
2018-05-02T08:18:34.863Z,10.60
2018-05-02T08:21:01.053Z,10.80
2018-05-02T08:23:27.162Z,10.90
2018-05-02T08:25:53.298Z,11.10
2018-05-02T08:28:19.424Z,11.20
2018-05-02T08:30:45.585Z,11.50
2018-05-02T08:33:11.681Z,11.70
2018-05-02T08:35:37.889Z,11.90
2018-05-02T08:38:04.030Z,12.20
2018-05-02T08:40:30.166Z,12.30
2018-05-02T08:42:56.312Z,12.50
2018-05-02T08:45:22.455Z,12.70
2018-05-02T08:47:48.557Z,12.90
2018-05-02T08:50:14.710Z,13.10
2018-05-02T08:52:40.845Z,13.10
2018-05-02T08:55:07.069Z,13.20
2018-05-02T08:57:33.214Z,13.30
2018-05-02T09:00:00.078Z,13.50
2018-05-02T09:02:26.941Z,13.60
2018-05-02T09:04:53.153Z,13.60
2018-05-02T09:07:19.313Z,13.70
2018-05-02T09:09:45.493Z,13.90
2018-05-02T09:12:12.381Z,14.10
2018-05-02T09:14:38.524Z,14.10
2018-05-02T09:17:04.643Z,14.40
2018-05-02T09:19:30.787Z,14.50
2018-05-02T09:21:56.934Z,14.60
2018-05-02T09:24:23.042Z,14.60
2018-05-02T09:26:49.167Z,14.60
2018-05-02T09:29:15.315Z,14.70
2018-05-02T09:31:41.453Z,14.70
2018-05-02T09:34:07.557Z,14.80
2018-05-02T09:36:33.641Z,14.80
2018-05-02T09:38:59.766Z,14.90
2018-05-02T09:41:25.909Z,14.90
2018-05-02T09:43:52.031Z,14.90
2018-05-02T09:46:18.181Z,14.90
2018-05-02T09:48:45.293Z,15.10
2018-05-02T09:51:11.386Z,15.10
2018-05-02T09:53:37.526Z,15.00
2018-05-02T09:56:03.645Z,14.60
2018-05-02T09:58:29.746Z,14.70
2018-05-02T10:00:55.977Z,14.80
2018-05-02T10:03:22.085Z,15.00
2018-05-02T10:05:48.189Z,14.90
2018-05-02T10:08:14.649Z,14.90
2018-05-02T10:10:41.542Z,14.90
2018-05-02T10:13:07.722Z,14.90
2018-05-02T10:15:33.913Z,15.00
2018-05-02T10:18:00.038Z,15.10
2018-05-02T10:20:26.153Z,15.10
2018-05-02T10:22:52.709Z,15.30
2018-05-02T10:25:22.931Z,15.60
2018-05-02T11:22:36.561Z,16.10
2018-05-02T11:25:06.824Z,16.20
2018-05-02T11:33:29.559Z,16.70
2018-05-02T11:38:39.188Z,17.20
2018-05-02T11:41:09.045Z,17.40
2018-05-02T11:43:35.596Z,17.40
2018-05-02T11:46:07.319Z,17.40
2018-05-02T11:48:34.849Z,17.60
2018-05-02T11:53:36.572Z,17.80
2018-05-02T11:56:02.785Z,18.10
2018-05-02T11:58:29.920Z,18.20
2018-05-02T12:00:57.483Z,18.10
2018-05-02T12:03:26.689Z,18.40
2018-05-02T12:06:11.601Z,18.60
2018-05-02T12:08:38.607Z,18.70
2018-05-02T12:11:05.794Z,18.80
2018-05-02T12:13:42.473Z,18.80
2018-05-02T12:16:09.170Z,18.70
2018-05-02T12:18:38.045Z,18.60
2018-05-02T12:21:09.309Z,18.30
2018-05-02T12:23:37.612Z,18.50
2018-05-02T12:26:04.517Z,18.60
2018-05-02T12:28:30.791Z,18.30
2018-05-02T12:30:57.955Z,18.30
2018-05-02T12:33:24.690Z,18.40
2018-05-02T12:35:53.258Z,18.60
2018-05-02T12:38:19.385Z,18.60
2018-05-02T12:40:46.073Z,18.50
2018-05-02T12:43:13.321Z,18.60
2018-05-02T12:45:39.684Z,18.40
2018-05-02T12:48:08.432Z,18.40
2018-05-02T12:50:34.836Z,18.40
2018-05-02T12:53:01.323Z,18.30
2018-05-02T12:55:29.181Z,18.60
2018-05-02T12:57:55.431Z,18.80
2018-05-02T13:00:21.895Z,18.80
2018-05-02T13:02:48.289Z,19.00
2018-05-02T13:05:15.594Z,19.10
2018-05-02T13:07:41.805Z,19.20
2018-05-02T13:10:08.072Z,19.30
2018-05-02T13:12:34.297Z,19.50
2018-05-02T13:15:00.431Z,19.60
2018-05-02T13:17:26.643Z,19.40
2018-05-02T13:19:52.909Z,19.40
2018-05-02T13:22:19.069Z,19.60
2018-05-02T13:24:45.203Z,19.60
2018-05-02T13:27:11.361Z,19.70
2018-05-02T13:29:37.799Z,19.70
2018-05-02T13:32:04.058Z,19.30
2018-05-02T13:34:30.391Z,19.50
2018-05-02T13:36:56.634Z,19.60
2018-05-02T13:39:22.801Z,19.70
2018-05-02T13:41:49.151Z,19.80
2018-05-02T13:44:15.297Z,20.00
2018-05-02T13:46:55.293Z,19.90
2018-05-02T13:49:21.712Z,20.10
2018-05-02T13:51:48.653Z,20.20
2018-05-02T13:54:15.641Z,20.10
2018-05-02T13:56:42.487Z,20.00
2018-05-02T13:59:10.840Z,19.80
2018-05-02T14:01:37.904Z,19.60
2018-05-02T14:04:04.961Z,19.60
2018-05-02T14:06:33.783Z,19.60
2018-05-02T14:09:00.135Z,19.60
2018-05-02T14:11:27.317Z,19.80
2018-05-02T14:13:54.771Z,20.00
2018-05-02T14:16:24.478Z,20.20
2018-05-02T14:18:57.786Z,20.20
2018-05-02T14:21:26.426Z,20.20
2018-05-02T14:23:53.958Z,20.30
2018-05-02T14:26:22.244Z,20.30
2018-05-02T14:28:49.507Z,20.60
2018-05-02T14:31:15.619Z,20.50
2018-05-02T14:33:42.488Z,20.80
2018-05-02T14:36:08.638Z,20.80
2018-05-02T14:38:34.758Z,20.80
2018-05-02T14:41:00.881Z,20.70
2018-05-02T14:43:26.991Z,20.90
2018-05-02T14:45:53.139Z,20.90
2018-05-02T14:48:19.263Z,20.60
2018-05-02T14:50:45.558Z,20.50
2018-05-02T14:53:11.862Z,20.20
2018-05-02T14:55:37.993Z,20.10
2018-05-02T14:58:04.186Z,20.20
2018-05-02T15:00:30.351Z,20.30
2018-05-02T15:02:56.475Z,20.10
2018-05-02T15:05:23.099Z,20.30
2018-05-02T15:07:49.233Z,20.40
2018-05-02T15:10:15.356Z,20.50
2018-05-02T15:12:41.479Z,20.80
2018-05-02T15:15:07.573Z,21.00
2018-05-02T15:17:33.682Z,21.10
2018-05-02T15:19:59.871Z,21.20
2018-05-02T15:22:26.035Z,21.10
2018-05-02T15:24:52.165Z,20.70
2018-05-02T15:27:18.388Z,20.80
2018-05-02T15:29:44.523Z,20.70
2018-05-02T15:32:10.749Z,20.50
2018-05-02T15:34:36.870Z,20.50
2018-05-02T15:37:03.730Z,21.10
2018-05-02T15:39:29.854Z,21.10
2018-05-02T15:41:56.025Z,21.60
2018-05-02T15:44:22.153Z,21.80
2018-05-02T15:46:48.281Z,21.90
2018-05-02T15:49:14.380Z,21.50
2018-05-02T15:51:40.547Z,21.10
2018-05-02T15:54:06.671Z,21.20
2018-05-02T15:56:32.789Z,21.30
2018-05-02T15:58:58.944Z,21.60
2018-05-02T16:01:25.070Z,21.60
2018-05-02T16:03:51.941Z,21.90
2018-05-02T16:06:19.110Z,21.90
2018-05-02T16:08:45.201Z,22.00
2018-05-02T16:11:11.301Z,21.80
2018-05-02T16:13:37.422Z,21.90
2018-05-02T16:16:03.609Z,21.70
2018-05-02T16:18:29.822Z,21.40
2018-05-02T16:20:55.973Z,21.20
2018-05-02T16:23:23.697Z,21.00
2018-05-02T16:25:49.839Z,20.40
2018-05-02T16:28:15.980Z,20.20
2018-05-02T16:30:42.128Z,20.30
2018-05-02T16:33:08.321Z,20.50
2018-05-02T16:35:34.482Z,20.40
2018-05-02T16:38:01.418Z,20.30
2018-05-02T16:40:27.548Z,19.90
2018-05-02T16:42:53.663Z,19.80
2018-05-02T16:45:19.882Z,19.40
2018-05-02T16:47:46.051Z,19.10
2018-05-02T16:50:12.234Z,18.90
2018-05-02T16:52:38.350Z,18.60
2018-05-02T16:55:04.458Z,18.50
2018-05-02T16:57:31.387Z,18.30
2018-05-02T16:59:57.489Z,18.20
2018-05-02T17:02:23.717Z,18.10
2018-05-02T17:04:50.137Z,18.10
2018-05-02T17:07:16.531Z,18.10
2018-05-02T17:09:43.724Z,17.90
2018-05-02T17:12:10.923Z,17.70
2018-05-02T17:14:37.573Z,17.60
2018-05-02T17:17:04.168Z,17.60
2018-05-02T17:19:30.297Z,17.40
2018-05-02T17:21:56.579Z,17.40
2018-05-02T17:24:22.785Z,17.30
2018-05-02T17:26:49.655Z,17.10
2018-05-02T17:29:15.836Z,17.10
2018-05-02T17:31:42.811Z,17.00
2018-05-02T17:34:09.667Z,16.90
2018-05-02T17:36:35.866Z,16.90
2018-05-02T17:39:02.124Z,16.80
2018-05-02T17:41:28.773Z,16.80
2018-05-02T17:43:54.880Z,16.70
2018-05-02T17:46:21.592Z,16.60
2018-05-02T17:48:47.775Z,16.60
2018-05-02T17:51:13.939Z,16.60
2018-05-02T17:53:42.081Z,16.50
2018-05-02T17:56:08.221Z,16.40
2018-05-02T18:13:15.908Z,15.90
2018-05-02T18:15:49.772Z,15.80
2018-05-02T18:18:20.223Z,15.70
2018-05-02T18:20:57.646Z,15.60
2018-05-02T19:34:04.370Z,13.30
2018-05-02T19:36:32.702Z,13.30
2018-05-02T19:39:11.778Z,13.30
2018-05-02T21:21:00.606Z,11.80
2018-05-02T21:23:28.425Z,11.70
2018-05-02T21:25:55.296Z,11.70
2018-05-02T21:28:21.756Z,11.70
2018-05-02T21:30:48.115Z,11.60
2018-05-02T21:33:14.365Z,11.60
2018-05-02T21:35:43.466Z,11.50
2018-05-02T21:38:10.315Z,11.50
2018-05-02T21:40:36.661Z,11.50
2018-05-02T21:43:03.182Z,11.50
2018-05-02T21:45:29.490Z,11.50
2018-05-02T21:47:55.687Z,11.40
2018-05-02T21:50:22.737Z,11.30
2018-05-02T21:52:49.114Z,11.40
2018-05-02T21:55:15.275Z,11.30
2018-05-02T21:57:42.203Z,11.20
2018-05-02T22:00:09.018Z,11.20
2018-05-02T22:02:35.824Z,11.10
2018-05-02T22:05:05.173Z,11.10
2018-05-02T22:07:31.378Z,11.00
2018-05-02T22:09:57.717Z,10.90
2018-05-02T22:12:23.969Z,10.90
2018-05-02T22:14:50.418Z,10.90
2018-05-02T22:17:20.127Z,10.90
2018-05-02T22:19:46.291Z,10.90
2018-05-02T22:22:12.482Z,10.90
2018-05-02T22:24:38.793Z,10.90
2018-05-02T22:27:04.937Z,10.80
2018-05-02T22:29:31.073Z,10.70
2018-05-02T22:31:57.177Z,10.70
2018-05-02T22:34:23.555Z,10.70
2018-05-02T22:36:49.721Z,10.70
2018-05-02T22:39:15.807Z,10.60
2018-05-02T22:41:41.930Z,10.60
2018-05-02T22:44:07.999Z,10.50
2018-05-02T22:46:34.160Z,10.50
2018-05-02T22:49:00.236Z,10.50
2018-05-02T22:51:26.389Z,10.50
2018-05-02T22:53:52.481Z,10.40
2018-05-02T22:56:18.573Z,10.40
2018-05-02T22:58:45.452Z,10.40
2018-05-02T23:01:11.537Z,10.30
2018-05-02T23:03:38.389Z,10.30
2018-05-02T23:06:05.253Z,10.20
2018-05-02T23:08:32.145Z,10.20
2018-05-02T23:10:58.245Z,10.20
2018-05-02T23:13:24.337Z,10.20
2018-05-02T23:15:51.165Z,10.10
2018-05-02T23:18:17.272Z,10.10
2018-05-02T23:20:43.425Z,10.00
2018-05-02T23:23:09.505Z,9.90
2018-05-02T23:25:35.612Z,9.90
2018-05-02T23:28:01.709Z,9.80
2018-05-02T23:30:28.558Z,9.70
2018-05-02T23:32:55.405Z,9.70
2018-05-02T23:35:22.263Z,9.70
2018-05-02T23:37:48.353Z,9.70
2018-05-02T23:40:14.442Z,9.70
2018-05-02T23:42:40.575Z,9.70
2018-05-02T23:45:06.677Z,9.60
2018-05-02T23:47:32.774Z,9.60
2018-05-02T23:49:59.623Z,9.50
2018-05-02T23:52:25.712Z,9.50
2018-05-02T23:54:51.809Z,9.50
2018-05-02T23:57:17.962Z,9.50
2018-05-02T23:59:44.324Z,9.50
